sensor_id;sensor_type;location;lat;lon;timestamp;P1;durP1;ratioP1;P2;durP2;ratioP2
35993;SDS011;22066;54.274;18.578;2022-09-20T00:01:04;4.10;;;1.42;;
35993;SDS011;22066;54.274;18.578;2022-09-20T00:03:31;5.03;;;1.67;;
35993;SDS011;22066;54.274;18.578;2022-09-20T00:05:59;3.30;;;1.75;;
35993;SDS011;22066;54.274;18.578;2022-09-20T00:08:25;4.35;;;2.10;;
35993;SDS011;22066;54.274;18.578;2022-09-20T00:10:51;6.20;;;2.00;;
35993;SDS011;22066;54.274;18.578;2022-09-20T00:13:22;3.60;;;1.50;;
35993;SDS011;22066;54.274;18.578;2022-09-20T00:15:48;3.78;;;1.48;;
35993;SDS011;22066;54.274;18.578;2022-09-20T00:18:13;2.30;;;1.30;;
35993;SDS011;22066;54.274;18.578;2022-09-20T00:20:46;3.00;;;1.48;;
35993;SDS011;22066;54.274;18.578;2022-09-20T00:23:13;6.20;;;1.60;;
35993;SDS011;22066;54.274;18.578;2022-09-20T00:25:39;4.00;;;1.70;;
35993;SDS011;22066;54.274;18.578;2022-09-20T00:28:05;3.25;;;1.58;;
35993;SDS011;22066;54.274;18.578;2022-09-20T00:30:31;3.92;;;1.42;;
35993;SDS011;22066;54.274;18.578;2022-09-20T00:32:58;2.97;;;1.45;;
35993;SDS011;22066;54.274;18.578;2022-09-20T00:35:24;3.90;;;1.60;;
35993;SDS011;22066;54.274;18.578;2022-09-20T00:37:50;5.10;;;1.58;;
35993;SDS011;22066;54.274;18.578;2022-09-20T00:40:17;3.53;;;1.80;;
35993;SDS011;22066;54.274;18.578;2022-09-20T00:42:46;5.18;;;1.40;;
35993;SDS011;22066;54.274;18.578;2022-09-20T00:45:23;4.03;;;1.30;;
35993;SDS011;22066;54.274;18.578;2022-09-20T00:47:56;4.30;;;1.70;;
35993;SDS011;22066;54.274;18.578;2022-09-20T00:50:38;3.15;;;1.40;;
35993;SDS011;22066;54.274;18.578;2022-09-20T00:53:27;4.18;;;1.52;;
35993;SDS011;22066;54.274;18.578;2022-09-20T00:55:55;2.80;;;1.38;;
35993;SDS011;22066;54.274;18.578;2022-09-20T00:58:23;4.20;;;1.25;;
35993;SDS011;22066;54.274;18.578;2022-09-20T01:00:49;3.55;;;1.48;;
35993;SDS011;22066;54.274;18.578;2022-09-20T01:03:16;3.42;;;1.40;;
35993;SDS011;22066;54.274;18.578;2022-09-20T01:05:46;3.15;;;1.30;;
35993;SDS011;22066;54.274;18.578;2022-09-20T01:08:12;4.90;;;1.65;;
35993;SDS011;22066;54.274;18.578;2022-09-20T01:10:39;6.03;;;2.08;;
35993;SDS011;22066;54.274;18.578;2022-09-20T01:13:05;3.25;;;1.50;;
35993;SDS011;22066;54.274;18.578;2022-09-20T01:15:31;5.28;;;1.13;;
35993;SDS011;22066;54.274;18.578;2022-09-20T01:17:59;3.53;;;1.35;;
35993;SDS011;22066;54.274;18.578;2022-09-20T01:20:30;3.20;;;1.30;;
35993;SDS011;22066;54.274;18.578;2022-09-20T01:28:10;6.30;;;1.42;;
35993;SDS011;22066;54.274;18.578;2022-09-20T01:30:38;4.35;;;1.55;;
35993;SDS011;22066;54.274;18.578;2022-09-20T01:35:31;4.15;;;1.63;;
35993;SDS011;22066;54.274;18.578;2022-09-20T01:40:46;4.47;;;1.70;;
35993;SDS011;22066;54.274;18.578;2022-09-20T01:44:19;3.20;;;1.20;;
35993;SDS011;22066;54.274;18.578;2022-09-20T01:48:47;4.07;;;1.48;;
35993;SDS011;22066;54.274;18.578;2022-09-20T02:05:03;2.75;;;1.20;;
35993;SDS011;22066;54.274;18.578;2022-09-20T02:15:06;3.28;;;1.10;;
35993;SDS011;22066;54.274;18.578;2022-09-20T02:20:02;4.55;;;1.52;;
35993;SDS011;22066;54.274;18.578;2022-09-20T02:22:40;2.78;;;1.13;;
35993;SDS011;22066;54.274;18.578;2022-09-20T02:33:31;3.20;;;1.00;;
35993;SDS011;22066;54.274;18.578;2022-09-20T02:41:24;4.47;;;1.20;;
35993;SDS011;22066;54.274;18.578;2022-09-20T02:52:02;3.17;;;1.38;;
35993;SDS011;22066;54.274;18.578;2022-09-20T02:54:32;2.97;;;1.25;;
35993;SDS011;22066;54.274;18.578;2022-09-20T02:59:39;3.55;;;1.38;;
35993;SDS011;22066;54.274;18.578;2022-09-20T03:04:58;2.95;;;1.70;;
35993;SDS011;22066;54.274;18.578;2022-09-20T03:07:48;2.80;;;1.20;;
35993;SDS011;22066;54.274;18.578;2022-09-20T03:20:57;4.00;;;2.17;;
35993;SDS011;22066;54.274;18.578;2022-09-20T03:33:54;3.05;;;1.20;;
35993;SDS011;22066;54.274;18.578;2022-09-20T03:36:25;5.05;;;1.30;;
35993;SDS011;22066;54.274;18.578;2022-09-20T03:46:21;3.08;;;1.00;;
35993;SDS011;22066;54.274;18.578;2022-09-20T03:48:58;3.67;;;1.25;;
35993;SDS011;22066;54.274;18.578;2022-09-20T03:54:08;5.60;;;1.25;;
35993;SDS011;22066;54.274;18.578;2022-09-20T04:04:59;3.88;;;1.35;;
35993;SDS011;22066;54.274;18.578;2022-09-20T04:17:56;1.90;;;1.00;;
35993;SDS011;22066;54.274;18.578;2022-09-20T04:23:09;6.10;;;1.88;;
35993;SDS011;22066;54.274;18.578;2022-09-20T04:25:38;3.50;;;1.33;;
35993;SDS011;22066;54.274;18.578;2022-09-20T04:28:08;3.88;;;1.10;;
35993;SDS011;22066;54.274;18.578;2022-09-20T04:30:36;2.80;;;1.30;;
35993;SDS011;22066;54.274;18.578;2022-09-20T04:33:12;3.17;;;1.27;;
35993;SDS011;22066;54.274;18.578;2022-09-20T04:35:59;4.30;;;1.60;;
35993;SDS011;22066;54.274;18.578;2022-09-20T04:39:10;3.50;;;1.23;;
35993;SDS011;22066;54.274;18.578;2022-09-20T04:47:33;3.10;;;1.40;;
35993;SDS011;22066;54.274;18.578;2022-09-20T05:00:23;3.20;;;1.27;;
35993;SDS011;22066;54.274;18.578;2022-09-20T05:03:20;3.70;;;1.40;;
35993;SDS011;22066;54.274;18.578;2022-09-20T05:11:10;4.22;;;1.85;;
35993;SDS011;22066;54.274;18.578;2022-09-20T05:16:06;3.60;;;1.60;;
35993;SDS011;22066;54.274;18.578;2022-09-20T05:18:43;3.63;;;1.50;;
35993;SDS011;22066;54.274;18.578;2022-09-20T05:29:19;3.95;;;1.65;;
35993;SDS011;22066;54.274;18.578;2022-09-20T05:39:52;3.67;;;1.80;;
35993;SDS011;22066;54.274;18.578;2022-09-20T05:42:38;3.67;;;1.35;;
35993;SDS011;22066;54.274;18.578;2022-09-20T05:45:15;5.00;;;1.73;;
35993;SDS011;22066;54.274;18.578;2022-09-20T05:53:23;5.22;;;1.60;;
35993;SDS011;22066;54.274;18.578;2022-09-20T05:55:58;7.43;;;2.17;;
35993;SDS011;22066;54.274;18.578;2022-09-20T06:00:58;3.28;;;1.50;;
35993;SDS011;22066;54.274;18.578;2022-09-20T06:06:03;7.20;;;1.77;;
35993;SDS011;22066;54.274;18.578;2022-09-20T06:08:47;4.60;;;1.90;;
35993;SDS011;22066;54.274;18.578;2022-09-20T06:14:03;2.25;;;1.05;;
35993;SDS011;22066;54.274;18.578;2022-09-20T06:19:13;2.40;;;1.10;;
35993;SDS011;22066;54.274;18.578;2022-09-20T06:21:49;2.17;;;1.17;;
35993;SDS011;22066;54.274;18.578;2022-09-20T06:26:45;1.83;;;0.90;;
35993;SDS011;22066;54.274;18.578;2022-09-20T06:29:13;1.33;;;0.75;;
35993;SDS011;22066;54.274;18.578;2022-09-20T06:31:41;2.60;;;1.08;;
35993;SDS011;22066;54.274;18.578;2022-09-20T06:34:07;2.28;;;1.10;;
35993;SDS011;22066;54.274;18.578;2022-09-20T06:36:38;3.47;;;0.90;;
35993;SDS011;22066;54.274;18.578;2022-09-20T06:39:46;1.88;;;0.70;;
35993;SDS011;22066;54.274;18.578;2022-09-20T06:42:31;1.95;;;1.00;;
35993;SDS011;22066;54.274;18.578;2022-09-20T06:44:57;2.00;;;0.88;;
35993;SDS011;22066;54.274;18.578;2022-09-20T06:47:23;2.15;;;1.10;;
35993;SDS011;22066;54.274;18.578;2022-09-20T06:49:51;2.72;;;1.08;;
35993;SDS011;22066;54.274;18.578;2022-09-20T06:52:18;2.65;;;1.60;;
35993;SDS011;22066;54.274;18.578;2022-09-20T06:54:45;4.28;;;1.50;;
35993;SDS011;22066;54.274;18.578;2022-09-20T06:57:12;3.40;;;1.00;;
35993;SDS011;22066;54.274;18.578;2022-09-20T06:59:39;3.03;;;0.90;;
35993;SDS011;22066;54.274;18.578;2022-09-20T07:02:06;3.40;;;1.10;;
35993;SDS011;22066;54.274;18.578;2022-09-20T07:04:33;2.28;;;1.10;;
35993;SDS011;22066;54.274;18.578;2022-09-20T07:07:00;3.50;;;1.25;;
35993;SDS011;22066;54.274;18.578;2022-09-20T07:09:26;2.72;;;1.20;;
35993;SDS011;22066;54.274;18.578;2022-09-20T07:11:52;3.15;;;1.30;;
35993;SDS011;22066;54.274;18.578;2022-09-20T07:14:19;5.20;;;1.25;;
35993;SDS011;22066;54.274;18.578;2022-09-20T07:16:45;4.07;;;1.33;;
35993;SDS011;22066;54.274;18.578;2022-09-20T07:19:11;3.05;;;1.20;;
35993;SDS011;22066;54.274;18.578;2022-09-20T07:21:37;3.38;;;1.33;;
35993;SDS011;22066;54.274;18.578;2022-09-20T07:24:04;3.42;;;1.63;;
35993;SDS011;22066;54.274;18.578;2022-09-20T07:26:30;3.95;;;1.20;;
35993;SDS011;22066;54.274;18.578;2022-09-20T07:28:56;3.63;;;1.35;;
35993;SDS011;22066;54.274;18.578;2022-09-20T07:31:23;3.22;;;1.10;;
35993;SDS011;22066;54.274;18.578;2022-09-20T07:33:50;7.45;;;1.10;;
35993;SDS011;22066;54.274;18.578;2022-09-20T07:36:16;3.20;;;1.17;;
35993;SDS011;22066;54.274;18.578;2022-09-20T07:38:45;1.92;;;0.88;;
35993;SDS011;22066;54.274;18.578;2022-09-20T07:41:12;3.22;;;1.10;;
35993;SDS011;22066;54.274;18.578;2022-09-20T07:43:38;4.60;;;1.77;;
35993;SDS011;22066;54.274;18.578;2022-09-20T07:46:04;2.05;;;0.90;;
35993;SDS011;22066;54.274;18.578;2022-09-20T07:48:31;3.10;;;0.98;;
35993;SDS011;22066;54.274;18.578;2022-09-20T07:50:58;2.45;;;1.05;;
35993;SDS011;22066;54.274;18.578;2022-09-20T07:53:26;2.85;;;0.75;;
35993;SDS011;22066;54.274;18.578;2022-09-20T07:56:12;5.85;;;1.00;;
35993;SDS011;22066;54.274;18.578;2022-09-20T07:58:38;2.95;;;0.70;;
35993;SDS011;22066;54.274;18.578;2022-09-20T08:01:06;1.75;;;0.90;;
35993;SDS011;22066;54.274;18.578;2022-09-20T08:03:33;2.65;;;0.60;;
35993;SDS011;22066;54.274;18.578;2022-09-20T08:05:59;2.90;;;0.77;;
35993;SDS011;22066;54.274;18.578;2022-09-20T08:08:26;2.00;;;0.77;;
35993;SDS011;22066;54.274;18.578;2022-09-20T08:10:59;1.95;;;0.70;;
35993;SDS011;22066;54.274;18.578;2022-09-20T08:13:26;1.02;;;0.60;;
35993;SDS011;22066;54.274;18.578;2022-09-20T08:15:59;3.42;;;0.85;;
35993;SDS011;22066;54.274;18.578;2022-09-20T08:18:26;4.28;;;0.73;;
35993;SDS011;22066;54.274;18.578;2022-09-20T08:20:52;1.33;;;0.70;;
35993;SDS011;22066;54.274;18.578;2022-09-20T08:23:19;0.70;;;0.63;;
35993;SDS011;22066;54.274;18.578;2022-09-20T08:25:46;1.33;;;0.50;;
35993;SDS011;22066;54.274;18.578;2022-09-20T08:28:13;6.30;;;0.77;;
35993;SDS011;22066;54.274;18.578;2022-09-20T08:30:39;1.67;;;0.70;;
35993;SDS011;22066;54.274;18.578;2022-09-20T08:33:06;2.03;;;0.40;;
35993;SDS011;22066;54.274;18.578;2022-09-20T08:35:36;3.60;;;1.45;;
35993;SDS011;22066;54.274;18.578;2022-09-20T08:38:02;3.72;;;1.08;;
35993;SDS011;22066;54.274;18.578;2022-09-20T08:40:28;1.08;;;0.70;;
35993;SDS011;22066;54.274;18.578;2022-09-20T08:42:54;3.63;;;0.80;;
35993;SDS011;22066;54.274;18.578;2022-09-20T08:45:21;2.92;;;0.90;;
35993;SDS011;22066;54.274;18.578;2022-09-20T08:47:50;2.55;;;0.98;;
35993;SDS011;22066;54.274;18.578;2022-09-20T08:50:18;1.90;;;0.70;;
35993;SDS011;22066;54.274;18.578;2022-09-20T08:52:46;1.73;;;0.60;;
35993;SDS011;22066;54.274;18.578;2022-09-20T08:55:20;1.15;;;0.50;;
35993;SDS011;22066;54.274;18.578;2022-09-20T08:57:54;2.25;;;0.70;;
35993;SDS011;22066;54.274;18.578;2022-09-20T09:00:21;4.25;;;1.30;;
35993;SDS011;22066;54.274;18.578;2022-09-20T09:02:49;1.65;;;0.90;;
35993;SDS011;22066;54.274;18.578;2022-09-20T09:07:55;2.95;;;1.15;;
35993;SDS011;22066;54.274;18.578;2022-09-20T09:10:24;1.65;;;0.98;;
35993;SDS011;22066;54.274;18.578;2022-09-20T09:12:51;3.53;;;0.90;;
35993;SDS011;22066;54.274;18.578;2022-09-20T09:15:27;1.70;;;0.80;;
35993;SDS011;22066;54.274;18.578;2022-09-20T09:17:55;1.45;;;0.57;;
35993;SDS011;22066;54.274;18.578;2022-09-20T09:20:21;0.68;;;0.50;;
35993;SDS011;22066;54.274;18.578;2022-09-20T09:22:57;4.60;;;1.35;;
35993;SDS011;22066;54.274;18.578;2022-09-20T09:25:25;3.35;;;1.33;;
35993;SDS011;22066;54.274;18.578;2022-09-20T09:28:00;1.55;;;0.82;;
35993;SDS011;22066;54.274;18.578;2022-09-20T09:30:45;0.85;;;0.60;;
35993;SDS011;22066;54.274;18.578;2022-09-20T09:33:25;2.08;;;0.60;;
35993;SDS011;22066;54.274;18.578;2022-09-20T09:35:55;2.65;;;0.73;;
35993;SDS011;22066;54.274;18.578;2022-09-20T09:38:24;1.58;;;0.65;;
35993;SDS011;22066;54.274;18.578;2022-09-20T09:40:51;1.50;;;0.60;;
35993;SDS011;22066;54.274;18.578;2022-09-20T09:43:18;3.83;;;0.82;;
35993;SDS011;22066;54.274;18.578;2022-09-20T09:45:47;3.30;;;0.70;;
35993;SDS011;22066;54.274;18.578;2022-09-20T09:48:27;0.85;;;0.57;;
35993;SDS011;22066;54.274;18.578;2022-09-20T09:51:10;2.65;;;0.75;;
35993;SDS011;22066;54.274;18.578;2022-09-20T09:53:37;3.92;;;0.68;;
35993;SDS011;22066;54.274;18.578;2022-09-20T09:58:43;3.80;;;1.35;;
35993;SDS011;22066;54.274;18.578;2022-09-20T10:01:20;3.25;;;1.17;;
35993;SDS011;22066;54.274;18.578;2022-09-20T10:04:04;3.70;;;1.27;;
35993;SDS011;22066;54.274;18.578;2022-09-20T10:19:33;2.28;;;0.70;;
35993;SDS011;22066;54.274;18.578;2022-09-20T10:24:42;5.80;;;1.23;;
35993;SDS011;22066;54.274;18.578;2022-09-20T10:43:04;3.40;;;1.08;;
35993;SDS011;22066;54.274;18.578;2022-09-20T10:50:53;2.05;;;0.77;;
35993;SDS011;22066;54.274;18.578;2022-09-20T10:53:24;2.28;;;0.95;;
35993;SDS011;22066;54.274;18.578;2022-09-20T11:08:37;5.03;;;1.20;;
35993;SDS011;22066;54.274;18.578;2022-09-20T11:11:08;1.63;;;0.88;;
35993;SDS011;22066;54.274;18.578;2022-09-20T11:14:19;4.38;;;1.13;;
35993;SDS011;22066;54.274;18.578;2022-09-20T11:16:26;2.65;;;1.00;;
35993;SDS011;22066;54.274;18.578;2022-09-20T11:18:57;1.67;;;0.80;;
35993;SDS011;22066;54.274;18.578;2022-09-20T11:21:27;2.88;;;1.20;;
35993;SDS011;22066;54.274;18.578;2022-09-20T11:26:35;1.85;;;0.80;;
35993;SDS011;22066;54.274;18.578;2022-09-20T11:29:11;2.75;;;1.35;;
35993;SDS011;22066;54.274;18.578;2022-09-20T11:31:40;3.13;;;0.85;;
35993;SDS011;22066;54.274;18.578;2022-09-20T11:34:15;1.33;;;0.82;;
35993;SDS011;22066;54.274;18.578;2022-09-20T11:39:13;2.15;;;0.90;;
35993;SDS011;22066;54.274;18.578;2022-09-20T11:41:40;1.63;;;0.80;;
35993;SDS011;22066;54.274;18.578;2022-09-20T11:44:08;3.08;;;0.80;;
35993;SDS011;22066;54.274;18.578;2022-09-20T11:46:37;2.28;;;0.70;;
35993;SDS011;22066;54.274;18.578;2022-09-20T11:49:07;3.40;;;1.35;;
35993;SDS011;22066;54.274;18.578;2022-09-20T11:56:40;1.83;;;0.80;;
35993;SDS011;22066;54.274;18.578;2022-09-20T11:59:06;2.95;;;1.38;;
35993;SDS011;22066;54.274;18.578;2022-09-20T12:01:48;2.72;;;0.85;;
35993;SDS011;22066;54.274;18.578;2022-09-20T12:04:20;1.73;;;0.98;;
35993;SDS011;22066;54.274;18.578;2022-09-20T12:06:54;3.63;;;1.15;;
35993;SDS011;22066;54.274;18.578;2022-09-20T12:09:22;3.60;;;1.00;;
35993;SDS011;22066;54.274;18.578;2022-09-20T12:16:46;3.10;;;1.10;;
35993;SDS011;22066;54.274;18.578;2022-09-20T12:19:13;3.30;;;1.20;;
35993;SDS011;22066;54.274;18.578;2022-09-20T12:24:31;4.38;;;1.20;;
35993;SDS011;22066;54.274;18.578;2022-09-20T12:27:20;4.00;;;1.33;;
35993;SDS011;22066;54.274;18.578;2022-09-20T12:43:47;3.42;;;1.30;;
35993;SDS011;22066;54.274;18.578;2022-09-20T12:46:33;4.63;;;1.30;;
35993;SDS011;22066;54.274;18.578;2022-09-20T12:49:29;5.55;;;1.58;;
35993;SDS011;22066;54.274;18.578;2022-09-20T12:52:22;4.45;;;2.05;;
35993;SDS011;22066;54.274;18.578;2022-09-20T12:55:08;4.63;;;1.95;;
35993;SDS011;22066;54.274;18.578;2022-09-20T12:57:36;3.80;;;1.80;;
35993;SDS011;22066;54.274;18.578;2022-09-20T13:00:03;5.40;;;1.70;;
35993;SDS011;22066;54.274;18.578;2022-09-20T13:07:53;5.35;;;1.70;;
35993;SDS011;22066;54.274;18.578;2022-09-20T13:10:25;3.92;;;1.77;;
35993;SDS011;22066;54.274;18.578;2022-09-20T13:13:01;3.83;;;1.98;;
35993;SDS011;22066;54.274;18.578;2022-09-20T13:15:28;6.47;;;2.05;;
35993;SDS011;22066;54.274;18.578;2022-09-20T13:17:55;3.40;;;1.10;;
35993;SDS011;22066;54.274;18.578;2022-09-20T13:20:26;5.38;;;1.55;;
35993;SDS011;22066;54.274;18.578;2022-09-20T13:22:58;4.85;;;1.50;;
35993;SDS011;22066;54.274;18.578;2022-09-20T13:25:24;3.53;;;1.50;;
35993;SDS011;22066;54.274;18.578;2022-09-20T13:28:06;6.28;;;1.73;;
35993;SDS011;22066;54.274;18.578;2022-09-20T13:30:32;4.60;;;1.63;;
35993;SDS011;22066;54.274;18.578;2022-09-20T13:33:15;5.60;;;1.20;;
35993;SDS011;22066;54.274;18.578;2022-09-20T13:35:43;3.50;;;1.40;;
35993;SDS011;22066;54.274;18.578;2022-09-20T13:38:10;3.60;;;1.30;;
35993;SDS011;22066;54.274;18.578;2022-09-20T13:40:40;2.58;;;1.20;;
35993;SDS011;22066;54.274;18.578;2022-09-20T13:45:49;4.03;;;1.17;;
35993;SDS011;22066;54.274;18.578;2022-09-20T13:48:17;4.45;;;1.15;;
35993;SDS011;22066;54.274;18.578;2022-09-20T13:50:43;2.65;;;1.00;;
35993;SDS011;22066;54.274;18.578;2022-09-20T13:53:15;3.03;;;1.30;;
35993;SDS011;22066;54.274;18.578;2022-09-20T13:55:42;4.28;;;1.35;;
35993;SDS011;22066;54.274;18.578;2022-09-20T13:58:19;2.05;;;1.40;;
35993;SDS011;22066;54.274;18.578;2022-09-20T14:00:46;2.35;;;1.48;;
35993;SDS011;22066;54.274;18.578;2022-09-20T14:03:15;5.40;;;1.52;;
35993;SDS011;22066;54.274;18.578;2022-09-20T14:05:45;3.33;;;1.80;;
35993;SDS011;22066;54.274;18.578;2022-09-20T14:08:12;2.60;;;1.00;;
35993;SDS011;22066;54.274;18.578;2022-09-20T14:10:42;3.28;;;1.50;;
35993;SDS011;22066;54.274;18.578;2022-09-20T14:13:15;1.65;;;1.00;;
35993;SDS011;22066;54.274;18.578;2022-09-20T14:15:44;2.53;;;1.20;;
35993;SDS011;22066;54.274;18.578;2022-09-20T14:18:15;4.45;;;1.33;;
35993;SDS011;22066;54.274;18.578;2022-09-20T14:20:43;6.57;;;1.42;;
35993;SDS011;22066;54.274;18.578;2022-09-20T14:26:21;2.47;;;1.40;;
35993;SDS011;22066;54.274;18.578;2022-09-20T14:28:48;2.97;;;1.10;;
35993;SDS011;22066;54.274;18.578;2022-09-20T14:31:19;5.05;;;1.05;;
35993;SDS011;22066;54.274;18.578;2022-09-20T14:33:47;4.10;;;2.15;;
35993;SDS011;22066;54.274;18.578;2022-09-20T14:36:17;2.22;;;1.05;;
35993;SDS011;22066;54.274;18.578;2022-09-20T14:38:44;3.10;;;1.27;;
35993;SDS011;22066;54.274;18.578;2022-09-20T14:41:12;1.98;;;1.10;;
35993;SDS011;22066;54.274;18.578;2022-09-20T14:43:38;5.00;;;1.10;;
35993;SDS011;22066;54.274;18.578;2022-09-20T14:46:06;3.33;;;1.08;;
35993;SDS011;22066;54.274;18.578;2022-09-20T14:48:36;11.98;;;1.70;;
35993;SDS011;22066;54.274;18.578;2022-09-20T14:53:34;6.07;;;1.50;;
35993;SDS011;22066;54.274;18.578;2022-09-20T14:58:31;2.08;;;1.20;;
35993;SDS011;22066;54.274;18.578;2022-09-20T15:01:05;3.97;;;1.48;;
35993;SDS011;22066;54.274;18.578;2022-09-20T15:03:39;2.38;;;1.00;;
35993;SDS011;22066;54.274;18.578;2022-09-20T15:06:09;2.22;;;0.93;;
35993;SDS011;22066;54.274;18.578;2022-09-20T15:08:35;4.45;;;1.45;;
35993;SDS011;22066;54.274;18.578;2022-09-20T15:11:02;5.00;;;1.10;;
35993;SDS011;22066;54.274;18.578;2022-09-20T15:13:29;3.03;;;1.10;;
35993;SDS011;22066;54.274;18.578;2022-09-20T15:15:55;2.85;;;1.20;;
35993;SDS011;22066;54.274;18.578;2022-09-20T15:18:24;5.70;;;1.30;;
35993;SDS011;22066;54.274;18.578;2022-09-20T15:20:51;4.75;;;1.45;;
35993;SDS011;22066;54.274;18.578;2022-09-20T15:23:17;2.33;;;1.10;;
35993;SDS011;22066;54.274;18.578;2022-09-20T15:25:44;3.33;;;1.50;;
35993;SDS011;22066;54.274;18.578;2022-09-20T15:28:13;5.68;;;1.38;;
35993;SDS011;22066;54.274;18.578;2022-09-20T15:30:41;2.95;;;1.27;;
35993;SDS011;22066;54.274;18.578;2022-09-20T15:33:08;3.72;;;1.73;;
35993;SDS011;22066;54.274;18.578;2022-09-20T15:35:34;2.17;;;1.10;;
35993;SDS011;22066;54.274;18.578;2022-09-20T15:38:00;3.30;;;1.92;;
35993;SDS011;22066;54.274;18.578;2022-09-20T15:40:26;4.00;;;1.45;;
35993;SDS011;22066;54.274;18.578;2022-09-20T15:42:55;2.95;;;1.30;;
35993;SDS011;22066;54.274;18.578;2022-09-20T15:45:23;4.43;;;1.50;;
35993;SDS011;22066;54.274;18.578;2022-09-20T15:47:50;4.20;;;1.20;;
35993;SDS011;22066;54.274;18.578;2022-09-20T15:50:19;2.50;;;1.23;;
35993;SDS011;22066;54.274;18.578;2022-09-20T15:52:48;5.72;;;1.42;;
35993;SDS011;22066;54.274;18.578;2022-09-20T15:55:19;3.75;;;1.30;;
35993;SDS011;22066;54.274;18.578;2022-09-20T15:57:45;3.20;;;1.27;;
35993;SDS011;22066;54.274;18.578;2022-09-20T16:00:13;3.40;;;1.25;;
35993;SDS011;22066;54.274;18.578;2022-09-20T16:02:42;3.00;;;1.20;;
35993;SDS011;22066;54.274;18.578;2022-09-20T16:05:08;3.80;;;1.30;;
35993;SDS011;22066;54.274;18.578;2022-09-20T16:07:35;5.00;;;1.75;;
35993;SDS011;22066;54.274;18.578;2022-09-20T16:10:01;3.88;;;1.40;;
35993;SDS011;22066;54.274;18.578;2022-09-20T16:12:27;4.70;;;1.75;;
35993;SDS011;22066;54.274;18.578;2022-09-20T16:14:53;3.92;;;1.77;;
35993;SDS011;22066;54.274;18.578;2022-09-20T16:17:19;4.55;;;1.65;;
35993;SDS011;22066;54.274;18.578;2022-09-20T16:20:08;6.22;;;2.45;;
35993;SDS011;22066;54.274;18.578;2022-09-20T16:22:34;4.95;;;2.25;;
35993;SDS011;22066;54.274;18.578;2022-09-20T16:25:00;4.43;;;2.20;;
35993;SDS011;22066;54.274;18.578;2022-09-20T16:27:29;4.72;;;1.75;;
35993;SDS011;22066;54.274;18.578;2022-09-20T16:29:59;5.13;;;1.80;;
35993;SDS011;22066;54.274;18.578;2022-09-20T16:32:25;4.78;;;2.13;;
35993;SDS011;22066;54.274;18.578;2022-09-20T16:34:51;3.53;;;2.03;;
35993;SDS011;22066;54.274;18.578;2022-09-20T16:37:20;6.15;;;2.53;;
35993;SDS011;22066;54.274;18.578;2022-09-20T16:39:56;5.43;;;1.70;;
35993;SDS011;22066;54.274;18.578;2022-09-20T16:42:22;4.40;;;1.95;;
35993;SDS011;22066;54.274;18.578;2022-09-20T16:44:48;5.82;;;2.03;;
35993;SDS011;22066;54.274;18.578;2022-09-20T16:47:15;5.35;;;2.17;;
35993;SDS011;22066;54.274;18.578;2022-09-20T16:49:48;5.53;;;2.67;;
35993;SDS011;22066;54.274;18.578;2022-09-20T16:52:15;6.28;;;3.45;;
35993;SDS011;22066;54.274;18.578;2022-09-20T16:54:41;4.65;;;2.60;;
35993;SDS011;22066;54.274;18.578;2022-09-20T16:57:07;5.03;;;2.85;;
35993;SDS011;22066;54.274;18.578;2022-09-20T16:59:34;6.30;;;2.65;;
35993;SDS011;22066;54.274;18.578;2022-09-20T17:02:00;5.10;;;2.67;;
35993;SDS011;22066;54.274;18.578;2022-09-20T17:04:26;5.50;;;3.00;;
35993;SDS011;22066;54.274;18.578;2022-09-20T17:06:52;6.43;;;2.80;;
35993;SDS011;22066;54.274;18.578;2022-09-20T17:09:18;6.88;;;2.70;;
35993;SDS011;22066;54.274;18.578;2022-09-20T17:11:46;6.75;;;3.33;;
35993;SDS011;22066;54.274;18.578;2022-09-20T17:14:13;6.22;;;3.13;;
35993;SDS011;22066;54.274;18.578;2022-09-20T17:16:41;9.35;;;4.35;;
35993;SDS011;22066;54.274;18.578;2022-09-20T17:19:11;7.43;;;3.65;;
35993;SDS011;22066;54.274;18.578;2022-09-20T17:21:39;7.20;;;3.70;;
35993;SDS011;22066;54.274;18.578;2022-09-20T17:24:07;9.65;;;4.45;;
35993;SDS011;22066;54.274;18.578;2022-09-20T17:26:34;6.97;;;3.80;;
35993;SDS011;22066;54.274;18.578;2022-09-20T17:29:03;13.52;;;6.00;;
35993;SDS011;22066;54.274;18.578;2022-09-20T17:31:34;10.90;;;5.00;;
35993;SDS011;22066;54.274;18.578;2022-09-20T17:34:05;12.13;;;5.63;;
35993;SDS011;22066;54.274;18.578;2022-09-20T17:36:35;14.20;;;6.55;;
35993;SDS011;22066;54.274;18.578;2022-09-20T17:39:03;8.70;;;4.82;;
35993;SDS011;22066;54.274;18.578;2022-09-20T17:41:29;14.90;;;6.07;;
35993;SDS011;22066;54.274;18.578;2022-09-20T17:43:56;11.45;;;5.45;;
35993;SDS011;22066;54.274;18.578;2022-09-20T17:46:25;11.73;;;5.60;;
35993;SDS011;22066;54.274;18.578;2022-09-20T17:49:04;12.43;;;5.18;;
35993;SDS011;22066;54.274;18.578;2022-09-20T17:51:34;9.30;;;4.38;;
35993;SDS011;22066;54.274;18.578;2022-09-20T17:54:01;11.65;;;4.47;;
35993;SDS011;22066;54.274;18.578;2022-09-20T17:56:27;9.90;;;4.40;;
35993;SDS011;22066;54.274;18.578;2022-09-20T17:58:55;15.13;;;4.50;;
35993;SDS011;22066;54.274;18.578;2022-09-20T18:01:22;9.40;;;4.88;;
35993;SDS011;22066;54.274;18.578;2022-09-20T18:03:50;9.68;;;4.90;;
35993;SDS011;22066;54.274;18.578;2022-09-20T18:08:52;11.63;;;5.75;;
35993;SDS011;22066;54.274;18.578;2022-09-20T18:11:20;12.50;;;6.18;;
35993;SDS011;22066;54.274;18.578;2022-09-20T18:13:47;12.82;;;5.05;;
35993;SDS011;22066;54.274;18.578;2022-09-20T18:16:14;10.73;;;4.95;;
35993;SDS011;22066;54.274;18.578;2022-09-20T18:18:41;12.90;;;6.03;;
35993;SDS011;22066;54.274;18.578;2022-09-20T18:21:28;12.43;;;5.68;;
35993;SDS011;22066;54.274;18.578;2022-09-20T18:23:53;12.32;;;5.50;;
35993;SDS011;22066;54.274;18.578;2022-09-20T18:26:22;15.27;;;7.13;;
35993;SDS011;22066;54.274;18.578;2022-09-20T18:28:55;12.23;;;6.93;;
35993;SDS011;22066;54.274;18.578;2022-09-20T18:31:23;24.60;;;13.57;;
35993;SDS011;22066;54.274;18.578;2022-09-20T18:33:53;17.85;;;8.77;;
35993;SDS011;22066;54.274;18.578;2022-09-20T18:36:19;11.45;;;5.68;;
35993;SDS011;22066;54.274;18.578;2022-09-20T18:38:45;11.10;;;4.82;;
35993;SDS011;22066;54.274;18.578;2022-09-20T18:41:12;11.07;;;4.88;;
35993;SDS011;22066;54.274;18.578;2022-09-20T18:43:38;8.50;;;4.47;;
35993;SDS011;22066;54.274;18.578;2022-09-20T18:48:32;9.65;;;4.53;;
35993;SDS011;22066;54.274;18.578;2022-09-20T18:50:59;10.00;;;4.43;;
35993;SDS011;22066;54.274;18.578;2022-09-20T18:53:29;7.25;;;4.20;;
35993;SDS011;22066;54.274;18.578;2022-09-20T18:58:31;11.52;;;4.80;;
35993;SDS011;22066;54.274;18.578;2022-09-20T19:01:13;8.52;;;3.33;;
35993;SDS011;22066;54.274;18.578;2022-09-20T19:03:49;8.65;;;3.95;;
35993;SDS011;22066;54.274;18.578;2022-09-20T19:06:17;10.70;;;4.45;;
35993;SDS011;22066;54.274;18.578;2022-09-20T19:08:48;7.28;;;3.65;;
35993;SDS011;22066;54.274;18.578;2022-09-20T19:11:24;11.20;;;4.75;;
35993;SDS011;22066;54.274;18.578;2022-09-20T19:13:56;12.15;;;6.40;;
35993;SDS011;22066;54.274;18.578;2022-09-20T19:16:26;29.20;;;16.48;;
35993;SDS011;22066;54.274;18.578;2022-09-20T19:21:33;37.97;;;19.85;;
35993;SDS011;22066;54.274;18.578;2022-09-20T19:26:36;25.48;;;15.75;;
35993;SDS011;22066;54.274;18.578;2022-09-20T19:29:09;16.92;;;9.77;;
35993;SDS011;22066;54.274;18.578;2022-09-20T19:31:39;10.02;;;5.15;;
35993;SDS011;22066;54.274;18.578;2022-09-20T19:34:09;10.18;;;5.65;;
35993;SDS011;22066;54.274;18.578;2022-09-20T19:36:49;9.52;;;4.70;;
35993;SDS011;22066;54.274;18.578;2022-09-20T19:39:22;7.55;;;3.83;;
35993;SDS011;22066;54.274;18.578;2022-09-20T19:49:39;8.65;;;3.47;;